Time;durP1;ratioP1;P1;durP2;ratioP2;P2;SDS_P1;SDS_P2;PMS_P1;PMS_P2;Temp;Humidity;BMP_temperature;BMP_pressure;BME280_temperature;BME280_humidity;BME280_pressure;Samples;Min_cycle;Max_cycle;Signal;HPM_P1;HPM_P2
2020/12/24 00:02:14;;;;;;;60.23;40.10;;;;;;;8.13;100.00;94854.03;4956443;29;20434;-76
2020/12/24 00:04:40;;;;;;;44.37;37.00;;;;;;;7.98;100.00;94853.75;4956768;29;20516;-75
2020/12/24 00:07:07;;;;;;;40.33;34.80;;;;;;;7.98;100.00;94858.88;4956524;29;20437;-75
2020/12/24 00:09:34;;;;;;;51.17;36.80;;;;;;;7.96;100.00;94854.84;4956593;29;20853;-75
2020/12/24 00:12:00;;;;;;;47.87;36.70;;;;;;;7.92;100.00;94856.09;4956157;29;20969;-75
2020/12/24 00:14:27;;;;;;;40.10;34.90;;;;;;;7.93;100.00;94848.25;4956378;29;20441;-75
2020/12/24 00:16:53;;;;;;;45.30;37.27;;;;;;;7.94;100.00;94841.34;4956116;29;20451;-74
2020/12/24 00:19:20;;;;;;;48.17;36.93;;;;;;;7.90;100.00;94839.09;4955847;28;20863;-74
2020/12/24 00:21:46;;;;;;;47.13;37.27;;;;;;;7.97;100.00;94841.09;4956356;28;20482;-75
2020/12/24 00:24:14;;;;;;;46.23;37.33;;;;;;;7.87;100.00;94844.50;4956202;29;20512;-75
2020/12/24 00:26:41;;;;;;;48.00;36.73;;;;;;;7.86;100.00;94831.84;4955666;29;20878;-76
2020/12/24 00:29:08;;;;;;;44.20;34.77;;;;;;;7.83;100.00;94838.06;4955695;29;20466;-77
2020/12/24 00:31:35;;;;;;;46.73;35.20;;;;;;;7.82;100.00;94835.66;4955647;29;20453;-77
2020/12/24 00:34:02;;;;;;;43.70;35.27;;;;;;;7.81;100.00;94845.09;4955660;29;20446;-76
2020/12/24 00:36:28;;;;;;;55.23;36.17;;;;;;;7.80;100.00;94835.78;4956334;29;20446;-76
2020/12/24 00:38:55;;;;;;;43.10;33.07;;;;;;;7.83;100.00;94830.38;4955540;29;20507;-76
2020/12/24 00:41:22;;;;;;;44.67;35.03;;;;;;;7.76;100.00;94832.69;4955358;29;20508;-76
2020/12/24 00:43:49;;;;;;;41.80;34.90;;;;;;;7.34;100.00;94826.31;4955464;29;20445;-76
2020/12/24 00:46:16;;;;;;;46.83;34.10;;;;;;;7.52;100.00;94820.44;4955469;29;20435;-76
2020/12/24 00:48:42;;;;;;;47.40;35.30;;;;;;;7.50;100.00;94801.81;4955566;29;20446;-76
2020/12/24 00:51:09;;;;;;;48.90;35.90;;;;;;;7.72;100.00;94802.38;4955253;29;20457;-77
2020/12/24 00:53:36;;;;;;;47.60;36.50;;;;;;;7.70;100.00;94812.78;4955551;29;20434;-76
2020/12/24 00:56:02;;;;;;;44.40;35.10;;;;;;;7.61;100.00;94817.00;4955193;29;20450;-76
2020/12/24 00:58:29;;;;;;;46.30;34.73;;;;;;;7.70;100.00;94828.16;4955785;29;20454;-76
2020/12/24 01:00:56;;;;;;;47.60;38.57;;;;;;;7.73;100.00;94822.72;4955032;29;20443;-76
2020/12/24 01:03:23;;;;;;;49.10;37.00;;;;;;;7.62;100.00;94835.72;4955016;29;20438;-76
2020/12/24 01:05:49;;;;;;;48.30;36.07;;;;;;;7.64;100.00;94839.00;4954459;28;20452;-74
2020/12/24 01:08:15;;;;;;;47.03;36.93;;;;;;;7.47;100.00;94838.78;4955515;29;20452;-76
2020/12/24 01:10:42;;;;;;;38.33;34.17;;;;;;;7.42;100.00;94836.66;4954768;29;20485;-76
2020/12/24 01:13:09;;;;;;;41.97;35.43;;;;;;;7.58;100.00;94844.66;4954981;29;20506;-76
2020/12/24 01:15:36;;;;;;;53.60;36.07;;;;;;;7.54;100.00;94849.28;4954888;29;20453;-75
2020/12/24 01:18:03;;;;;;;52.10;35.53;;;;;;;7.51;100.00;94842.69;4955396;29;20941;-74
2020/12/24 01:20:30;;;;;;;43.70;35.67;;;;;;;7.53;100.00;94837.41;4955434;28;20484;-76
2020/12/24 01:22:56;;;;;;;43.33;35.77;;;;;;;7.49;100.00;94842.00;4954682;29;20442;-77
2020/12/24 01:25:23;;;;;;;39.50;35.30;;;;;;;7.38;100.00;94835.31;4955071;29;20426;-75
2020/12/24 01:27:49;;;;;;;42.90;34.30;;;;;;;7.40;100.00;94823.16;4954941;29;20438;-75
2020/12/24 01:30:15;;;;;;;59.33;36.13;;;;;;;7.49;100.00;94829.19;4954831;29;20470;-74
2020/12/24 01:32:43;;;;;;;40.67;34.43;;;;;;;7.45;100.00;94815.06;4954424;29;20459;-75
2020/12/24 01:35:09;;;;;;;40.03;34.30;;;;;;;7.52;100.00;94815.31;4954411;29;20453;-75
2020/12/24 01:37:35;;;;;;;43.10;34.53;;;;;;;7.52;100.00;94815.31;4954504;29;20462;-75
2020/12/24 01:40:03;;;;;;;41.57;35.07;;;;;;;7.50;100.00;94805.19;4954420;29;20442;-75
2020/12/24 01:42:29;;;;;;;50.93;35.40;;;;;;;7.50;100.00;94799.25;4954631;29;20446;-77
2020/12/24 01:44:57;;;;;;;37.67;33.43;;;;;;;7.53;100.00;94804.09;4954379;29;20438;-77
2020/12/24 01:47:24;;;;;;;36.67;32.80;;;;;;;7.55;100.00;94804.75;4954243;29;20439;-75
2020/12/24 01:49:51;;;;;;;42.27;34.40;;;;;;;7.39;100.00;94795.91;4954106;29;20477;-75
2020/12/24 01:52:29;;;;;;;39.10;33.83;;;;;;;7.42;100.00;94805.91;4954381;29;20835;-75
2020/12/24 01:54:55;;;;;;;39.83;34.90;;;;;;;7.38;100.00;94812.25;4954306;29;20442;-75
2020/12/24 01:57:22;;;;;;;41.03;34.07;;;;;;;7.28;100.00;94806.38;4955301;29;20450;-75
2020/12/24 01:59:48;;;;;;;38.60;34.43;;;;;;;7.38;100.00;94802.00;4954463;29;20442;-76
2020/12/24 02:02:15;;;;;;;49.57;33.53;;;;;;;7.15;100.00;94791.31;4954364;29;20450;-75
2020/12/24 02:04:41;;;;;;;43.67;35.33;;;;;;;7.24;100.00;94799.91;4954307;29;20431;-76
2020/12/24 02:07:09;;;;;;;38.67;33.13;;;;;;;7.32;100.00;94794.91;4954233;29;20521;-76
2020/12/24 02:09:35;;;;;;;44.50;33.70;;;;;;;7.16;100.00;94775.81;4953964;29;20918;-75
2020/12/24 02:12:03;;;;;;;39.83;33.80;;;;;;;7.20;100.00;94791.72;4953798;29;20442;-75
2020/12/24 02:14:30;;;;;;;37.57;33.27;;;;;;;7.27;100.00;94794.50;4954102;29;20509;-75
2020/12/24 02:16:56;;;;;;;37.00;33.03;;;;;;;7.28;100.00;94791.78;4953658;29;20460;-75
2020/12/24 02:19:23;;;;;;;37.00;32.20;;;;;;;7.27;100.00;94794.50;4953747;29;20445;-75
2020/12/24 02:21:50;;;;;;;36.40;32.50;;;;;;;7.30;100.00;94795.03;4954298;28;20520;-74
2020/12/24 02:24:17;;;;;;;37.03;33.13;;;;;;;7.29;100.00;94796.00;4954295;29;20454;-75
2020/12/24 02:26:43;;;;;;;39.80;34.03;;;;;;;7.27;100.00;94797.06;4954179;29;20468;-75
2020/12/24 02:29:10;;;;;;;37.80;33.70;;;;;;;7.32;100.00;94797.47;4953632;29;20481;-75
2020/12/24 02:31:36;;;;;;;39.03;33.30;;;;;;;7.20;100.00;94782.28;4953909;29;20505;-74
2020/12/24 02:34:03;;;;;;;43.70;32.90;;;;;;;7.37;100.00;94790.13;4953544;29;20431;-74
2020/12/24 02:36:29;;;;;;;37.30;31.03;;;;;;;7.39;100.00;94788.22;4953652;29;20545;-74
2020/12/24 02:38:56;;;;;;;38.90;31.50;;;;;;;7.42;100.00;94790.53;4953663;29;20504;-74
2020/12/24 02:41:23;;;;;;;43.90;33.07;;;;;;;7.26;100.00;94796.25;4953540;29;20446;-74
2020/12/24 02:43:50;;;;;;;35.33;31.53;;;;;;;7.00;100.00;94779.00;4967105;28;20471;-75
2020/12/24 02:46:17;;;;;;;34.63;31.13;;;;;;;7.10;100.00;94776.41;4970136;28;21019;-75
2020/12/24 02:48:43;;;;;;;39.80;32.50;;;;;;;7.14;100.00;94767.47;4955716;28;20444;-74
2020/12/24 02:51:10;;;;;;;34.50;30.90;;;;;;;7.06;100.00;94763.06;4954792;28;20477;-74
2020/12/24 02:53:37;;;;;;;35.53;31.73;;;;;;;7.23;100.00;94763.25;4966991;28;20979;-76
2020/12/24 02:56:05;;;;;;;35.60;31.67;;;;;;;7.29;100.00;94772.13;4972830;28;20445;-75
2020/12/24 02:58:31;;;;;;;35.10;31.53;;;;;;;7.29;100.00;94762.69;4972557;28;20450;-75
2020/12/24 03:00:58;;;;;;;38.87;33.33;;;;;;;7.25;100.00;94763.91;4972489;28;20441;-75
2020/12/24 03:03:25;;;;;;;43.37;32.57;;;;;;;7.22;100.00;94775.25;4973086;28;20436;-75
2020/12/24 03:05:52;;;;;;;40.33;33.53;;;;;;;7.11;100.00;94760.06;4972876;28;20453;-75
2020/12/24 03:08:18;;;;;;;36.30;30.90;;;;;;;7.15;100.00;94781.06;4973134;28;20444;-75
2020/12/24 03:10:45;;;;;;;35.80;32.10;;;;;;;7.11;100.00;94770.31;4972683;28;20491;-75
2020/12/24 03:13:13;;;;;;;38.07;33.20;;;;;;;7.12;100.00;94782.19;4973193;28;20512;-76
2020/12/24 03:15:39;;;;;;;36.97;32.93;;;;;;;7.08;100.00;94784.19;4973039;28;20513;-75
2020/12/24 03:18:05;;;;;;;35.13;31.50;;;;;;;7.06;100.00;94791.22;4972737;28;20448;-75
2020/12/24 03:20:32;;;;;;;37.40;30.10;;;;;;;7.03;100.00;94785.59;4973331;28;20483;-76
2020/12/24 03:22:58;;;;;;;33.63;29.90;;;;;;;6.97;100.00;94782.63;4972597;28;20473;-76
2020/12/24 03:25:25;;;;;;;36.63;30.70;;;;;;;6.94;100.00;94782.13;4972507;28;20449;-76
2020/12/24 03:27:52;;;;;;;45.73;32.00;;;;;;;6.83;100.00;94778.75;4973379;28;20978;-76
2020/12/24 03:30:19;;;;;;;34.13;30.37;;;;;;;6.93;100.00;94781.31;4976837;28;20464;-77
2020/12/24 03:32:46;;;;;;;39.87;31.47;;;;;;;7.01;100.00;94787.47;4976648;28;20995;-76
2020/12/24 03:35:13;;;;;;;37.10;31.07;;;;;;;6.92;100.00;94787.34;4976026;28;20441;-77
2020/12/24 03:37:39;;;;;;;35.47;30.87;;;;;;;6.82;100.00;94769.47;4976254;28;20460;-76
2020/12/24 03:40:06;;;;;;;32.17;29.07;;;;;;;6.83;100.00;94783.09;4976132;28;20437;-75
2020/12/24 03:42:32;;;;;;;34.33;29.63;;;;;;;6.85;100.00;94778.66;4968070;28;20992;-75
2020/12/24 03:44:59;;;;;;;33.83;28.83;;;;;;;6.89;100.00;94779.16;4956389;29;20442;-75
2020/12/24 03:47:26;;;;;;;33.73;30.27;;;;;;;6.94;100.00;94777.81;4970614;28;20510;-75
2020/12/24 03:49:53;;;;;;;36.53;32.60;;;;;;;6.97;100.00;94784.38;4975582;28;20584;-75
2020/12/24 03:52:19;;;;;;;32.90;29.30;;;;;;;6.99;100.00;94777.34;4971656;28;20443;-75
2020/12/24 03:54:45;;;;;;;37.70;32.00;;;;;;;6.98;100.00;94786.00;4957030;29;20454;-75
2020/12/24 03:57:12;;;;;;;33.50;30.03;;;;;;;6.96;100.00;94782.78;4956278;29;20454;-75
2020/12/24 03:59:38;;;;;;;34.80;31.20;;;;;;;6.93;100.00;94781.31;4956122;29;20812;-75
2020/12/24 04:02:05;;;;;;;37.60;31.40;;;;;;;6.92;100.00;94789.13;4956512;29;20453;-75
2020/12/24 04:04:38;;;;;;;32.97;29.33;;;;;;;6.97;100.00;94786.94;4971696;28;20466;-75
2020/12/24 04:07:05;;;;;;;32.20;29.00;;;;;;;6.91;100.00;94788.31;4970005;28;20442;-75
2020/12/24 04:09:31;;;;;;;33.57;30.20;;;;;;;6.86;100.00;94775.94;4962192;28;20484;-75
2020/12/24 04:11:58;;;;;;;32.57;29.23;;;;;;;6.97;100.00;94782.63;4975301;28;20433;-77
2020/12/24 04:14:33;;;;;;;187.37;81.33;;;;;;;6.84;100.00;94782.94;4956682;29;20441;-77
2020/12/24 04:16:59;;;;;;;155.77;74.77;;;;;;;6.86;100.00;94787.91;4969876;28;20484;-77
2020/12/24 04:19:27;;;;;;;129.20;57.30;;;;;;;6.78;100.00;94787.81;4975237;28;20446;-72
2020/12/24 04:21:57;;;;;;;394.77;182.30;;;;;;;6.82;100.00;94778.91;4975614;28;20485;-85
2020/12/24 04:24:23;;;;;;;96.20;56.73;;;;;;;6.77;100.00;94763.97;4975413;28;20537;-76
2020/12/24 04:26:50;;;;;;;55.40;39.50;;;;;;;6.85;100.00;94776.91;4958980;28;20450;-76
2020/12/24 04:29:16;;;;;;;49.50;37.40;;;;;;;6.88;100.00;94770.66;4955688;29;20438;-76
2020/12/24 04:31:43;;;;;;;42.53;36.27;;;;;;;6.94;100.00;94782.13;4955566;29;20442;-77
2020/12/24 04:34:10;;;;;;;46.73;38.70;;;;;;;6.97;100.00;94774.94;4973364;28;20452;-76
2020/12/24 04:36:37;;;;;;;51.57;39.10;;;;;;;6.90;100.00;94768.78;4975166;28;20437;-76
2020/12/24 04:39:05;;;;;;;42.50;36.30;;;;;;;6.87;100.00;94782.69;4969785;28;20443;-76
2020/12/24 04:41:31;;;;;;;41.80;32.10;;;;;;;6.70;100.00;94755.25;4967572;28;20465;-76
2020/12/24 04:43:58;;;;;;;36.30;32.73;;;;;;;6.81;100.00;94775.53;4973691;28;20869;-77
2020/12/24 04:46:29;;;;;;;42.00;31.33;;;;;;;6.80;100.00;94773.94;4955558;29;20926;-78
2020/12/24 04:48:58;;;;;;;34.50;31.10;;;;;;;6.75;100.00;94764.13;4955476;29;21007;-76
2020/12/24 04:51:26;;;;;;;36.53;32.33;;;;;;;6.74;100.00;94770.16;4956241;29;20434;-76
2020/12/24 04:53:53;;;;;;;34.20;31.00;;;;;;;6.62;100.00;94767.00;4955573;29;20434;-76
2020/12/24 04:56:21;;;;;;;36.77;32.97;;;;;;;6.64;100.00;94765.09;4964733;28;20449;-77
2020/12/24 04:58:47;;;;;;;35.40;31.87;;;;;;;6.68;100.00;94762.25;4974617;28;20455;-76
2020/12/24 05:01:16;;;;;;;40.30;34.17;;;;;;;6.80;100.00;94768.00;4974494;28;20429;-76
2020/12/24 05:03:42;;;;;;;39.23;31.07;;;;;;;6.81;100.00;94751.72;4974739;28;20457;-76
2020/12/24 05:06:14;;;;;;;36.47;32.57;;;;;;;6.92;100.00;94768.66;4970734;28;20957;-75
2020/12/24 05:08:41;;;;;;;81.30;48.60;;;;;;;6.93;100.00;94768.50;4973717;28;20928;-70
2020/12/24 05:11:08;;;;;;;297.40;137.30;;;;;;;7.00;100.00;94755.94;4967026;28;20468;-77
2020/12/24 05:13:36;;;;;;;58.37;42.53;;;;;;;6.92;100.00;94759.19;4955059;29;20442;-77
2020/12/24 05:16:20;;;;;;;38.67;33.37;;;;;;;6.90;100.00;94750.84;4954794;29;20961;-78
2020/12/24 05:18:47;;;;;;;45.17;33.60;;;;;;;6.90;100.00;94753.41;4954711;29;20582;-79
2020/12/24 05:21:30;;;;;;;36.93;32.93;;;;;;;6.92;100.00;94756.63;4955829;28;20565;-77
2020/12/24 05:23:56;;;;;;;41.57;32.37;;;;;;;6.78;100.00;94751.97;4954630;29;20790;-77
2020/12/24 05:26:23;;;;;;;33.83;29.33;;;;;;;6.24;100.00;94708.09;4963064;28;20442;-79
2020/12/24 05:28:51;;;;;;;33.60;30.23;;;;;;;6.79;100.00;94749.28;4973997;28;20441;-77
2020/12/24 05:31:34;;;;;;;44.83;32.87;;;;;;;6.72;100.00;94756.69;4974029;28;20511;-76
2020/12/24 05:34:00;;;;;;;47.90;32.80;;;;;;;6.78;100.00;94749.41;4974354;28;20566;-76
2020/12/24 05:36:27;;;;;;;69.70;43.37;;;;;;;6.79;100.00;94748.50;4974048;28;20800;-78
2020/12/24 05:38:53;;;;;;;42.13;36.20;;;;;;;6.20;100.00;94727.22;4973946;28;20457;-77
2020/12/24 05:41:31;;;;;;;85.00;49.03;;;;;;;6.62;100.00;94743.13;4966483;28;20513;-76
2020/12/24 05:44:01;;;;;;;52.33;41.90;;;;;;;6.66;100.00;94733.41;4954130;29;20444;-78
2020/12/24 05:46:29;;;;;;;67.70;42.97;;;;;;;6.66;100.00;94734.22;4954148;29;20508;-77
2020/12/24 05:48:56;;;;;;;78.03;51.47;;;;;;;6.79;100.00;94751.84;4970850;28;20917;-77
2020/12/24 05:51:23;;;;;;;58.00;45.60;;;;;;;6.80;100.00;94755.22;4973596;28;20547;-77
2020/12/24 05:53:49;;;;;;;70.57;48.47;;;;;;;6.84;100.00;94743.75;4973368;28;20979;-77
2020/12/24 05:56:21;;;;;;;80.33;52.00;;;;;;;6.84;100.00;94741.19;4960914;28;20452;-77
2020/12/24 05:59:02;;;;;;;88.73;55.07;;;;;;;6.85;100.00;94737.69;4954527;29;20450;-78
2020/12/24 06:01:30;;;;;;;82.53;57.93;;;;;;;6.78;100.00;94729.75;4954567;29;20500;-82
2020/12/24 06:04:33;;;;;;;248.40;117.53;;;;;;;6.96;100.00;94741.81;4969753;28;20448;-73
2020/12/24 06:07:13;;;;;;;144.77;77.80;;;;;;;6.38;100.00;94645.47;4927288;28;20449;-81
2020/12/24 06:09:41;;;;;;;72.17;52.93;;;;;;;7.03;100.00;94745.44;4972703;28;21011;-79
2020/12/24 06:12:18;;;;;;;60.17;47.13;;;;;;;6.84;100.00;94728.38;4973518;28;20451;-78
2020/12/24 06:14:53;;;;;;;63.93;42.07;;;;;;;7.01;100.00;94746.50;4972823;28;20932;-78
2020/12/24 06:17:22;;;;;;;47.07;40.70;;;;;;;6.97;100.00;94738.28;4972782;28;20448;-75
2020/12/24 06:19:49;;;;;;;140.40;82.67;;;;;;;6.97;100.00;94735.72;4972026;28;20437;-72
2020/12/24 06:22:17;;;;;;;73.97;51.37;;;;;;;6.98;100.00;94745.03;4958148;28;20531;-78
2020/12/24 06:24:46;;;;;;;67.83;43.77;;;;;;;6.90;100.00;94744.94;4972798;28;20449;-77
2020/12/24 06:27:21;;;;;;;56.13;42.13;;;;;;;6.91;100.00;94746.53;4972588;28;20437;-77
2020/12/24 06:29:50;;;;;;;55.90;39.30;;;;;;;6.88;100.00;94737.38;4955250;28;20818;-74
2020/12/24 06:32:20;;;;;;;57.87;42.57;;;;;;;6.97;100.00;94743.41;4956061;28;20454;-75
2020/12/24 06:34:46;;;;;;;56.27;43.67;;;;;;;6.98;100.00;94753.53;4954133;28;20438;-75
2020/12/24 06:37:15;;;;;;;52.33;42.10;;;;;;;6.98;100.00;94748.41;4958646;28;20445;-73
2020/12/24 06:39:44;;;;;;;56.47;39.30;;;;;;;6.98;100.00;94740.72;4972786;28;20968;-75
2020/12/24 06:42:40;;;;;;;46.90;37.27;;;;;;;7.17;100.00;94738.22;4972845;28;20441;-75
2020/12/24 06:45:08;;;;;;;50.60;37.67;;;;;;;7.09;100.00;94726.13;4955859;28;20433;-76
2020/12/24 06:47:36;;;;;;;43.00;36.67;;;;;;;7.16;100.00;94734.84;4972673;28;20446;-74
2020/12/24 06:50:37;;;;;;;53.60;36.97;;;;;;;6.83;100.00;94731.91;4972171;28;20475;-73
2020/12/24 06:53:30;;;;;;;42.57;36.77;;;;;;;6.94;100.00;94716.34;4961267;28;20450;-72
2020/12/24 06:56:21;;;;;;;38.77;34.07;;;;;;;7.13;100.00;94718.94;4935973;29;20461;-73
2020/12/24 06:58:53;;;;;;;44.90;35.27;;;;;;;6.99;100.00;94714.16;4971549;28;20457;-73
2020/12/24 07:01:20;;;;;;;40.87;36.43;;;;;;;6.99;100.00;94703.91;4972519;28;20429;-72
2020/12/24 07:03:49;;;;;;;45.83;38.53;;;;;;;7.16;100.00;94695.63;4974670;28;20444;-76
2020/12/24 07:06:52;;;;;;;52.60;39.20;;;;;;;7.40;100.00;94677.13;4977055;28;20449;-81
2020/12/24 07:09:47;;;;;;;49.57;37.07;;;;;;;7.40;100.00;94664.31;4976699;28;20441;-80
2020/12/24 07:12:36;;;;;;;39.90;33.97;;;;;;;7.60;100.00;94664.16;4976606;28;20444;-81
2020/12/24 07:15:22;;;;;;;44.57;35.83;;;;;;;7.52;100.00;94666.66;4976355;28;20455;-84
2020/12/24 07:17:51;;;;;;;46.70;38.40;;;;;;;7.65;100.00;94649.16;4976380;28;20495;-89
2020/12/24 07:20:19;;;;;;;44.77;36.27;;;;;;;7.79;100.00;94655.50;4975427;28;20434;-88
2020/12/24 07:22:52;;;;;;;58.47;39.37;;;;;;;7.95;100.00;94646.31;4957196;29;21021;-79
2020/12/24 07:25:21;;;;;;;40.07;35.67;;;;;;;7.97;100.00;94630.78;4956623;29;20448;-81
2020/12/24 07:27:49;;;;;;;41.70;36.27;;;;;;;7.99;100.00;94641.69;4956923;29;20832;-88
2020/12/24 07:30:18;;;;;;;63.10;44.60;;;;;;;7.96;100.00;94634.28;4956939;29;20854;-87
2020/12/24 07:32:55;;;;;;;64.33;48.17;;;;;;;8.00;100.00;94644.09;4956294;29;20478;-83
2020/12/24 07:35:23;;;;;;;74.83;54.40;;;;;;;7.99;100.00;94655.31;4956604;29;20536;-81
2020/12/24 07:37:50;;;;;;;84.63;52.30;;;;;;;7.84;100.00;94633.75;4956462;29;20658;-79
2020/12/24 07:40:18;;;;;;;93.63;53.87;;;;;;;8.06;100.00;94654.72;4956334;29;20442;-78
2020/12/24 07:42:44;;;;;;;87.77;54.90;;;;;;;8.00;100.00;94653.53;4957035;29;20466;-79
2020/12/24 07:45:13;;;;;;;69.57;50.33;;;;;;;8.23;100.00;94658.19;4956242;29;20431;-79
2020/12/24 07:47:48;;;;;;;72.07;50.97;;;;;;;8.34;100.00;94655.38;4956389;29;20597;-79
2020/12/24 07:50:15;;;;;;;94.17;57.87;;;;;;;8.23;100.00;94660.75;4965927;28;20468;-80
2020/12/24 07:52:46;;;;;;;101.20;64.97;;;;;;;8.06;100.00;94662.41;4975529;28;20444;-79
2020/12/24 07:55:13;;;;;;;105.13;68.60;;;;;;;8.28;100.00;94662.88;4975287;28;20437;-79
2020/12/24 07:57:39;;;;;;;115.03;75.90;;;;;;;8.33;100.00;94664.00;4975463;28;20536;-77
2020/12/24 08:00:06;;;;;;;116.27;75.70;;;;;;;8.34;100.00;94663.06;4975267;28;20445;-78
2020/12/24 08:02:33;;;;;;;120.90;74.90;;;;;;;8.43;100.00;94665.66;4975564;28;20425;-79
2020/12/24 08:05:00;;;;;;;147.77;80.90;;;;;;;8.21;100.00;94671.16;4969001;28;20492;-78
2020/12/24 08:07:26;;;;;;;116.03;73.77;;;;;;;8.09;100.00;94672.34;4956161;29;20485;-79
2020/12/24 08:09:54;;;;;;;98.60;63.20;;;;;;;8.07;100.00;94669.13;4956104;29;20469;-79
2020/12/24 08:12:22;;;;;;;84.43;60.63;;;;;;;8.17;100.00;94669.06;4955475;29;20440;-77
2020/12/24 08:14:50;;;;;;;93.30;59.20;;;;;;;8.30;100.00;94643.81;4954657;28;20842;-78
2020/12/24 08:17:27;;;;;;;88.03;60.60;;;;;;;8.61;100.00;94649.41;4955884;29;20469;-81
2020/12/24 08:20:02;;;;;;;82.40;51.30;;;;;;;8.84;100.00;94651.44;4955357;29;20924;-81
2020/12/24 08:22:38;;;;;;;72.23;50.77;;;;;;;8.82;100.00;94667.00;4955697;28;20482;-77
2020/12/24 08:25:07;;;;;;;69.17;47.20;;;;;;;8.92;100.00;94657.41;4966563;28;20971;-77
2020/12/24 08:27:34;;;;;;;46.87;40.87;;;;;;;8.89;100.00;94662.84;4974228;28;20434;-76
2020/12/24 08:30:01;;;;;;;43.20;38.47;;;;;;;8.94;100.00;94654.66;4974143;28;20485;-78
2020/12/24 08:32:28;;;;;;;52.87;37.50;;;;;;;9.11;100.00;94665.00;4974070;28;20524;-79
2020/12/24 08:35:08;;;;;;;56.63;43.13;;;;;;;9.10;100.00;94665.94;4973754;28;20438;-79
2020/12/24 08:37:35;;;;;;;92.30;58.70;;;;;;;9.12;100.00;94652.00;4974233;28;20487;-79
2020/12/24 08:40:18;;;;;;;78.00;58.10;;;;;;;9.19;100.00;94671.91;4974252;28;20786;-76
2020/12/24 08:42:46;;;;;;;90.07;59.37;;;;;;;9.25;100.00;94681.59;4973951;28;20436;-77
2020/12/24 08:45:13;;;;;;;68.97;52.73;;;;;;;9.29;100.00;94688.03;4974542;28;20445;-79
2020/12/24 08:47:40;;;;;;;70.43;50.47;;;;;;;9.24;100.00;94685.91;4973918;28;20434;-76
2020/12/24 08:50:06;;;;;;;151.97;97.60;;;;;;;8.87;100.00;94687.09;4963200;28;20473;-76
2020/12/24 08:52:35;;;;;;;95.33;62.43;;;;;;;8.57;100.00;94674.56;4962956;28;20464;-74
2020/12/24 08:55:05;;;;;;;45.10;39.40;;;;;;;8.87;100.00;94664.75;4974157;28;20441;-76
2020/12/24 08:57:32;;;;;;;36.43;33.23;;;;;;;8.92;100.00;94644.56;4974146;28;20947;-75
2020/12/24 09:00:00;;;;;;;38.47;32.77;;;;;;;8.97;100.00;94641.53;4973584;28;20469;-76
2020/12/24 09:02:28;;;;;;;35.27;31.60;;;;;;;9.00;100.00;94641.22;4974182;28;20913;-76
2020/12/24 09:04:56;;;;;;;35.17;31.50;;;;;;;9.18;100.00;94644.63;4973334;28;20858;-75
2020/12/24 09:07:27;;;;;;;33.33;29.73;;;;;;;9.27;100.00;94631.63;4971368;28;20838;-76
2020/12/24 09:10:07;;;;;;;32.40;29.03;;;;;;;9.49;100.00;94626.84;4954193;29;20470;-74
2020/12/24 09:12:35;;;;;;;32.37;29.03;;;;;;;9.64;100.00;94625.38;4954246;29;20976;-76
2020/12/24 09:15:05;;;;;;;33.10;30.00;;;;;;;9.73;100.00;94638.09;4954032;29;20430;-76
2020/12/24 09:17:31;;;;;;;33.00;29.47;;;;;;;9.81;100.00;94639.84;4953854;29;20437;-76
2020/12/24 09:20:06;;;;;;;32.27;28.97;;;;;;;9.72;100.00;94633.88;4952772;29;20474;-75
2020/12/24 09:22:33;;;;;;;32.10;28.70;;;;;;;9.67;100.00;94632.78;4954361;28;21012;-77
2020/12/24 09:25:00;;;;;;;37.10;33.60;;;;;;;9.80;100.00;94637.44;4961221;28;20458;-77
2020/12/24 09:27:26;;;;;;;97.23;68.83;;;;;;;9.92;100.00;94641.31;4972499;28;20464;-76
2020/12/24 09:29:54;;;;;;;132.13;79.93;;;;;;;9.93;100.00;94642.09;4972796;28;20557;-74
2020/12/24 09:32:20;;;;;;;138.00;90.53;;;;;;;9.90;100.00;94639.84;4973573;28;20446;-75
2020/12/24 09:34:47;;;;;;;137.60;91.97;;;;;;;9.96;100.00;94646.91;4973481;28;20451;-78
2020/12/24 09:37:13;;;;;;;166.07;95.97;;;;;;;9.88;100.00;94658.00;4972754;28;20512;-75
2020/12/24 09:39:40;;;;;;;138.43;88.77;;;;;;;10.11;100.00;94651.38;4973026;28;20536;-77
2020/12/24 09:42:07;;;;;;;130.47;83.07;;;;;;;10.06;100.00;94650.09;4972133;28;20520;-75
2020/12/24 09:44:33;;;;;;;115.00;73.60;;;;;;;10.24;100.00;94646.53;4970604;28;21105;-78
2020/12/24 09:47:00;;;;;;;123.47;76.67;;;;;;;10.17;100.00;94651.53;4965883;28;20953;-74
2020/12/24 09:49:27;;;;;;;101.27;66.73;;;;;;;10.25;100.00;94652.50;4953523;29;20831;-77
2020/12/24 09:51:54;;;;;;;87.87;57.80;;;;;;;10.19;100.00;94651.41;4953745;29;20542;-77
2020/12/24 09:54:20;;;;;;;312.50;172.63;;;;;;;10.07;100.00;94649.16;4953841;29;20549;-75
2020/12/24 09:56:56;;;;;;;161.93;104.80;;;;;;;10.15;100.00;94640.59;4954159;29;20427;-81
2020/12/24 09:59:23;;;;;;;286.97;154.37;;;;;;;10.19;100.00;94641.09;4953185;29;20444;-72
2020/12/24 10:01:53;;;;;;;91.70;59.90;;;;;;;10.25;100.00;94616.47;4968752;28;20476;-76
2020/12/24 10:04:20;;;;;;;68.53;51.43;;;;;;;10.41;100.00;94628.50;4972490;28;20933;-74
2020/12/24 10:06:46;;;;;;;60.67;44.53;;;;;;;10.41;100.00;94626.72;4967228;28;20826;-75
2020/12/24 10:09:13;;;;;;;57.20;46.63;;;;;;;10.30;100.00;94609.06;4953527;29;20438;-79
2020/12/24 10:11:40;;;;;;;47.87;37.30;;;;;;;10.41;100.00;94620.75;4953524;29;20485;-78
2020/12/24 10:14:08;;;;;;;32.93;29.40;;;;;;;10.37;100.00;94622.84;4953234;29;20525;-76
2020/12/24 10:16:34;;;;;;;32.70;29.70;;;;;;;10.43;100.00;94626.56;4952973;29;20486;-75
2020/12/24 10:19:00;;;;;;;34.00;30.50;;;;;;;10.52;100.00;94629.94;4963263;28;20449;-76
2020/12/24 10:21:29;;;;;;;42.40;33.20;;;;;;;10.50;100.00;94637.03;4972327;28;20477;-76
2020/12/24 10:23:55;;;;;;;34.77;31.13;;;;;;;10.61;100.00;94628.13;4960585;28;20478;-76
2020/12/24 10:26:22;;;;;;;37.17;32.33;;;;;;;10.64;100.00;94623.44;4952997;29;20461;-76
2020/12/24 10:28:48;;;;;;;35.87;32.37;;;;;;;10.58;100.00;94623.28;4953127;29;20442;-78
2020/12/24 10:31:14;;;;;;;38.40;34.30;;;;;;;10.65;100.00;94632.78;4952661;29;20482;-74
2020/12/24 10:33:41;;;;;;;83.90;56.07;;;;;;;10.63;100.00;94631.34;4953173;29;20437;-77
2020/12/24 10:36:08;;;;;;;89.00;60.67;;;;;;;10.18;100.00;94604.25;4970791;28;20457;-76
2020/12/24 10:38:36;;;;;;;86.67;65.87;;;;;;;9.94;100.00;94617.97;4973847;28;20909;-76
2020/12/24 10:41:03;;;;;;;83.93;65.83;;;;;;;10.20;100.00;94632.41;4976117;28;20441;-80
2020/12/24 10:43:31;;;;;;;87.83;54.80;;;;;;;10.27;100.00;94638.50;4975890;28;20456;-78
2020/12/24 10:45:58;;;;;;;107.10;63.97;;;;;;;9.81;100.00;94619.25;4976047;28;20437;-79
2020/12/24 10:48:24;;;;;;;105.67;65.60;;;;;;;10.23;100.00;94629.50;4976374;28;20452;-77
2020/12/24 10:50:51;;;;;;;83.40;56.00;;;;;;;10.19;100.00;94626.44;4975999;28;20896;-77
2020/12/24 10:53:19;;;;;;;91.30;61.07;;;;;;;10.29;100.00;94615.16;4975788;28;20598;-81
2020/12/24 10:55:47;;;;;;;88.27;59.57;;;;;;;10.47;100.00;94622.66;4974023;28;20417;-76
2020/12/24 10:58:13;;;;;;;83.93;57.23;;;;;;;10.43;100.00;94613.69;4965158;28;20892;-76
2020/12/24 11:00:40;;;;;;;89.27;56.50;;;;;;;10.55;100.00;94613.34;4967891;28;20446;-75
2020/12/24 11:03:07;;;;;;;78.33;57.03;;;;;;;10.56;100.00;94612.38;4963710;28;20450;-77
2020/12/24 11:05:40;;;;;;;70.27;51.90;;;;;;;10.55;100.00;94605.63;4968817;28;20521;-77
2020/12/24 11:08:07;;;;;;;68.37;47.60;;;;;;;10.49;100.00;94601.91;4962086;28;20442;-75
2020/12/24 11:10:33;;;;;;;56.17;44.17;;;;;;;10.46;100.00;94600.44;4975199;28;20469;-78
2020/12/24 11:13:01;;;;;;;57.43;44.13;;;;;;;10.64;100.00;94596.91;4975768;28;20445;-79
2020/12/24 11:15:27;;;;;;;52.57;43.20;;;;;;;10.70;100.00;94593.66;4975396;28;20811;-77
2020/12/24 11:17:54;;;;;;;52.37;39.07;;;;;;;10.62;100.00;94589.31;4972171;28;20454;-76
2020/12/24 11:20:20;;;;;;;49.77;36.40;;;;;;;10.44;100.00;94594.66;4956597;29;20442;-77
2020/12/24 11:22:48;;;;;;;40.50;34.83;;;;;;;10.53;100.00;94582.59;4976384;28;20629;-76